Welcome to Northern Hawkes Bay. New Zealand.
PWS Header
      nz Flag



Hit Counter


W3C Valid W3C Valid logo


    Wairoa

Select any of the Stations below to visit their websites.










Historic Data from Weather Underground
Select the location of interest below. Wairoa is the default. Please have patience, this Data is slow to load in.
Northern Hawkes Bay Historical Data
Daily Summary for January 30, 2017 Units:  English    Metric   Both
« Previous Day
Next Day »
Daily Weekly Monthly Yearly Custom
  High: Low: Average:
Temperature: 75.6 °F 54.1 °F 66.9 °F
Dew Point: 61.2 °F 50.2 °F 55.4 °F
Humidity: 87% 46% 68%
Wind Speed: 10.7mph 0mph 3mph
Wind Gust: 15.2mph - -
Wind- - SW
Pressure: 30.2 in 30 in -
Precipitation: 0 in    
Historical Graphs
 
 
Tabular Data for January 30, 2017
Time Temperature Dew Point Pressure Wind Wind Speed Wind Gust Humidity Rainfall Rate (Hourly) solar
00:04 68.7 °F 53.4 °F 30 in Calm   3.1 mph 58% 0 in 0 W/m2
00:09 68.4 °F 53.4 °F 30 in NNW 1.6 mph 3.1 mph 59% 0 in 0 W/m2
00:14 68.2 °F 54.1 °F 30 in North 3.1 mph 3.8 mph 61% 0 in 0 W/m2
00:19 67.8 °F 55.2 °F 30 in North 1.6 mph 4.5 mph 64% 0 in 0 W/m2
00:24 67.5 °F 54.9 °F 30 in NNE 1.6 mph 4.5 mph 64% 0 in 0 W/m2
00:29 67.1 °F 54.5 °F 30 in NE 2.2 mph 3.8 mph 64% 0 in 0 W/m2
00:34 66.9 °F 54.9 °F 30 in NNW 2.2 mph 4.5 mph 65% 0 in 0 W/m2
00:39 66.7 °F 54.7 °F 30 in NW 0.7 mph 4.5 mph 65% 0 in 0 W/m2
00:44 66.2 °F 54.1 °F 30 in WNW 1.6 mph 3.8 mph 65% 0 in 0 W/m2
00:49 65.8 °F 54.7 °F 30 in Calm   3.1 mph 67% 0 in 0 W/m2
00:54 65.3 °F 54.1 °F 30 in WNW 1.6 mph 3.8 mph 67% 0 in 0 W/m2
00:59 65.5 °F 54.7 °F 30 in NW 2.2 mph 3.8 mph 68% 0 in 0 W/m2
01:04 65.5 °F 54.7 °F 30 in NW 2.2 mph 3.8 mph 68% 0 in 0 W/m2
01:14 65.1 °F 54.3 °F 30 in NW 1.6 mph 3.8 mph 68% 0 in 0 W/m2
01:19 64.8 °F 54 °F 30 in NW 1.6 mph 3.1 mph 68% 0 in 0 W/m2
01:35 63.5 °F 54.3 °F 30 in NNW 2.2 mph 3.8 mph 72% 0 in 0 W/m2
01:40 63.1 °F 54.3 °F 30 in North 1.6 mph 3.8 mph 73% 0 in 0 W/m2
01:45 62.8 °F 54.3 °F 30 in Calm   3.8 mph 74% 0 in 0 W/m2
01:50 62.6 °F 54.7 °F 30 in Calm   2.2 mph 75% 0 in 0 W/m2
01:55 62.4 °F 54.9 °F 30 in Calm   0.7 mph 76% 0 in 0 W/m2
02:00 62.2 °F 54.7 °F 30 in NW 3.1 mph 3.8 mph 76% 0 in 0 W/m2
02:05 61.9 °F 55 °F 30 in Calm   3.8 mph 78% 0 in 0 W/m2
02:10 61.7 °F 54.9 °F 30 in NW 1.6 mph 3.8 mph 78% 0 in 0 W/m2
02:15 61.3 °F 54.9 °F 30 in NW 1.6 mph 3.1 mph 79% 0 in 0 W/m2
02:20 61.2 °F 55 °F 30 in NNW 0.7 mph 4.5 mph 80% 0 in 0 W/m2
02:25 61.2 °F 55.2 °F 30 in NNW 1.6 mph 4.5 mph 81% 0 in 0 W/m2
02:30 61 °F 55 °F 30 in NW 2.2 mph 3.8 mph 81% 0 in 0 W/m2
02:35 60.6 °F 54.9 °F 30 in Calm   3.8 mph 81% 0 in 0 W/m2
02:40 60.4 °F 54.7 °F 30 in Calm   3.1 mph 81% 0 in 0 W/m2
02:45 60.3 °F 54.3 °F 30 in Calm   1.6 mph 81% 0 in 0 W/m2
02:50 60.1 °F 54.9 °F 30 in WSW 2.2 mph 3.8 mph 83% 0 in 0 W/m2
02:55 60.4 °F 55.2 °F 30 in West 1.6 mph 4.5 mph 83% 0 in 0 W/m2
03:00 60.6 °F 55.4 °F 30 in Calm   4.5 mph 83% 0 in 0 W/m2
03:05 60.4 °F 54.9 °F 30 in Calm   3.1 mph 82% 0 in 0 W/m2
03:10 60.3 °F 54.9 °F 30 in NW 0.7 mph 2.2 mph 82% 0 in 0 W/m2
03:15 60.6 °F 55.4 °F 30 in NW 2.2 mph 3.8 mph 83% 0 in 0 W/m2
03:20 60.6 °F 54.3 °F 30 in NW 1.6 mph 3.8 mph 80% 0 in 0 W/m2
03:25 60.6 °F 54.9 °F 30 in ENE 0.7 mph 3.1 mph 81% 0 in 0 W/m2
03:43 59.7 °F 54.7 °F 30 in Calm   2.2 mph 83% 0 in 0 W/m2
03:48 59.7 °F 54.7 °F 30 in North 0.7 mph 3.1 mph 83% 0 in 0 W/m2
03:53 59.4 °F 54.1 °F 30 in NNW 0.7 mph 3.1 mph 83% 0 in 0 W/m2
04:03 58.6 °F 53.8 °F 30 in NW 0.7 mph 2.2 mph 84% 0 in 0 W/m2
04:08 58.3 °F 53.8 °F 30 in NNW 2.2 mph 3.1 mph 85% 0 in 0 W/m2
04:18 57.4 °F 52.9 °F 30 in Calm   4.5 mph 85% 0 in 0 W/m2
04:23 57 °F 52.9 °F 30 in North 0.7 mph 2.2 mph 86% 0 in 0 W/m2
04:28 56.7 °F 52.9 °F 30 in NNW 1.6 mph 2.2 mph 87% 0 in 0 W/m2
04:33 56.5 °F 52.7 °F 30 in NNW 1.6 mph 2.2 mph 87% 0 in 0 W/m2
04:38 56.3 °F 52.5 °F 30 in North 0.7 mph 3.1 mph 87% 0 in 0 W/m2
04:43 55.9 °F 52.2 °F 30 in North 1.6 mph 3.1 mph 87% 0 in 0 W/m2
04:48 55.9 °F 52.2 °F 30 in NW 0.7 mph 2.2 mph 87% 0 in 0 W/m2
04:53 55.6 °F 51.4 °F 30 in NW 2.2 mph 3.1 mph 86% 0 in 0 W/m2
04:58 55.4 °F 51.3 °F 30 in NW 0.7 mph 3.1 mph 86% 0 in 0 W/m2
05:03 55.2 °F 51.1 °F 30 in NNW 2.2 mph 3.1 mph 86% 0 in 0 W/m2
05:08 55 °F 50.9 °F 30.1 in NNW 1.6 mph 3.1 mph 86% 0 in 0 W/m2
05:13 55 °F 50.9 °F 30.1 in NNW 1.6 mph 3.8 mph 86% 0 in 0 W/m2
05:23 54.9 °F 50.4 °F 30.1 in North 1.6 mph 3.8 mph 85% 0 in 0 W/m2
05:28 54.9 °F 50.4 °F 30.1 in North 0.7 mph 3.8 mph 85% 0 in 0 W/m2
05:33 54.7 °F 50.5 °F 30.1 in Calm   3.1 mph 86% 0 in 0 W/m2
05:38 54.7 °F 50.5 °F 30.1 in NNW 1.6 mph 3.1 mph 86% 0 in 0 W/m2
05:48 54.5 °F 50.4 °F 30.1 in North 1.6 mph 3.1 mph 86% 0 in 0 W/m2
05:53 54.5 °F 50.4 °F 30.1 in North 1.6 mph 3.1 mph 86% 0 in 0 W/m2
05:58 54.5 °F 50.4 °F 30.1 in NNW 1.6 mph 3.8 mph 86% 0 in 0 W/m2
06:03 54.3 °F 50.2 °F 30.1 in NNW 1.6 mph 3.8 mph 86% 0 in 0 W/m2
06:08 54.3 °F 50.2 °F 30.1 in North 1.6 mph 3.8 mph 86% 0 in 0 W/m2
06:13 54.3 °F 50.2 °F 30.1 in NNW 0.7 mph 3.8 mph 86% 0 in 0 W/m2
06:18 54.1 °F 50.2 °F 30.1 in NNW 1.6 mph 3.1 mph 86% 0 in 3 W/m2
06:23 54.1 °F 50.2 °F 30.1 in NNW 0.7 mph 3.1 mph 86% 0 in 5 W/m2
06:28 54.1 °F 50.2 °F 30.1 in NW 0.7 mph 3.1 mph 86% 0 in 9 W/m2
06:33 54.3 °F 50.2 °F 30.1 in NNW 2.2 mph 3.1 mph 86% 0 in 13 W/m2
06:38 54.3 °F 50.2 °F 30.1 in NNW 2.2 mph 3.8 mph 86% 0 in 28 W/m2
06:43 54.7 °F 50.5 °F 30.1 in NW 1.6 mph 4.5 mph 86% 0 in 33 W/m2
06:48 55.4 °F 51.1 °F 30.1 in NNW 1.6 mph 4.5 mph 85% 0 in 41 W/m2
06:53 55.9 °F 51.3 °F 30.1 in North 3.1 mph 5.4 mph 84% 0 in 50 W/m2
06:58 56.3 °F 51.3 °F 30.1 in NNW 2.2 mph 5.4 mph 83% 0 in 59 W/m2
07:03 57 °F 51.6 °F 30.1 in Calm   5.4 mph 82% 0 in 66 W/m2
07:08 57.6 °F 51.1 °F 30.1 in NNW 3.8 mph 5.4 mph 79% 0 in 71 W/m2
07:13 57.7 °F 50.9 °F 30.1 in NNW 2.2 mph 5.4 mph 78% 0 in 79 W/m2
07:18 58.3 °F 51.4 °F 30.1 in NNW 3.8 mph 5.4 mph 78% 0 in 88 W/m2
07:23 58.8 °F 52 °F 30.1 in NNW 2.2 mph 5.4 mph 78% 0 in 97 W/m2
07:28 59.5 °F 52 °F 30.1 in NW 3.1 mph 4.5 mph 76% 0 in 108 W/m2
07:33 59.9 °F 51.6 °F 30.1 in NNW 3.1 mph 4.5 mph 74% 0 in 118 W/m2
07:38 60.3 °F 51.6 °F 30.1 in NNW 3.1 mph 4.5 mph 73% 0 in 133 W/m2
07:43 60.4 °F 51.4 °F 30.1 in NNW 3.1 mph 5.4 mph 72% 0 in 147 W/m2
07:48 60.6 °F 52 °F 30.1 in NNW 2.2 mph 5.4 mph 73% 0 in 160 W/m2
07:53 61.3 °F 51.4 °F 30.1 in NNW 3.1 mph 6 mph 70% 0 in 172 W/m2
07:58 61.9 °F 51.6 °F 30.1 in NNW 3.8 mph 6 mph 69% 0 in 185 W/m2
08:03 62.4 °F 52.2 °F 30.1 in NNW 3.1 mph 5.4 mph 69% 0 in 197 W/m2
08:08 63.5 °F 52 °F 30.1 in NNW 3.1 mph 5.4 mph 66% 0 in 211 W/m2
08:13 63.5 °F 51.4 °F 30.1 in NNW 2.2 mph 6.9 mph 65% 0 in 221 W/m2
08:18 64 °F 51.6 °F 30.1 in NNW 3.8 mph 6.9 mph 64% 0 in 236 W/m2
08:23 64.8 °F 52.7 °F 30.1 in NNW 2.2 mph 6.9 mph 65% 0 in 250 W/m2
08:28 65.3 °F 52.9 °F 30.1 in Calm   5.4 mph 64% 0 in 264 W/m2
08:33 67.1 °F 53.8 °F 30.1 in NNE 1.6 mph 5.4 mph 62% 0 in 310 W/m2
08:38 69.6 °F 53.2 °F 30.1 in NE 3.1 mph 3.8 mph 56% 0 in 305 W/m2
08:43 70 °F 53.1 °F 30.1 in Calm   3.8 mph 55% 0 in 315 W/m2
08:48 72 °F 54.3 °F 30.1 in Calm   3.8 mph 54% 0 in 339 W/m2
08:53 73.2 °F 55.6 °F 30.1 in SSE 2.2 mph 6 mph 54% 0 in 350 W/m2
08:58 72 °F 56.5 °F 30.1 in SSW 3.8 mph 6 mph 58% 0 in 369 W/m2
09:03 70.7 °F 57.6 °F 30.1 in SW 8.3 mph 9.8 mph 63% 0 in 390 W/m2
09:08 69.8 °F 57.9 °F 30.1 in SW 7.6 mph 10.7 mph 66% 0 in 419 W/m2
09:13 69.3 °F 57.9 °F 30.2 in SW 5.4 mph 13.6 mph 67% 0 in 155 W/m2
09:18 68.7 °F 57.7 °F 30.2 in SSW 7.6 mph 13.6 mph 68% 0 in 271 W/m2
09:23 68.2 °F 57.9 °F 30.2 in South 6 mph 13.6 mph 70% 0 in 192 W/m2
09:28 67.8 °F 59.4 °F 30.2 in South 7.6 mph 11.4 mph 74% 0 in 361 W/m2
09:33 68 °F 57.6 °F 30.2 in South 6.9 mph 13.6 mph 69% 0 in 465 W/m2
09:38 68.2 °F 57.2 °F 30.2 in SSE 6.9 mph 13.6 mph 68% 0 in 407 W/m2
09:43 68.2 °F 57.9 °F 30.2 in South 5.4 mph 12.1 mph 70% 0 in 469 W/m2
09:48 68.9 °F 57.9 °F 30.2 in South 4.5 mph 10.7 mph 68% 0 in 519 W/m2
09:53 69.1 °F 58.1 °F 30.2 in South 3.8 mph 11.4 mph 68% 0 in 493 W/m2
09:58 69.8 °F 57.9 °F 30.2 in South 4.5 mph 11.4 mph 66% 0 in 569 W/m2
10:03 70 °F 58.1 °F 30.2 in South 5.4 mph 9.2 mph 66% 0 in 585 W/m2
10:09 69.8 °F 57.9 °F 30.2 in SW 6 mph 8.3 mph 66% 0 in 616 W/m2
10:14 69.8 °F 58.5 °F 30.2 in SW 4.5 mph 8.3 mph 67% 0 in 628 W/m2
10:19 70.3 °F 57.9 °F 30.2 in SSW 5.4 mph 8.3 mph 65% 0 in 656 W/m2
10:24 70.2 °F 57.4 °F 30.2 in South 6 mph 10.7 mph 64% 0 in 678 W/m2
10:34 69.8 °F 57.9 °F 30.2 in South 2.2 mph 9.8 mph 66% 0 in 693 W/m2
10:39 70.7 °F 58.5 °F 30.2 in SSE 6 mph 9.8 mph 65% 0 in 680 W/m2
10:44 70.9 °F 57.7 °F 30.2 in South 6 mph 8.3 mph 63% 0 in 726 W/m2
10:49 70.5 °F 57.7 °F 30.2 in South 3.1 mph 8.3 mph 64% 0 in 704 W/m2
10:54 70.5 °F 57.7 °F 30.2 in SSE 1.6 mph 9.2 mph 64% 0 in 778 W/m2
10:59 71.1 °F 58.3 °F 30.2 in South 4.5 mph 9.8 mph 64% 0 in 801 W/m2
11:04 70.5 °F 58.3 °F 30.2 in South 6 mph 10.7 mph 65% 0 in 812 W/m2
11:14 70.7 °F 58.5 °F 30.2 in SSE 6.9 mph 9.8 mph 65% 0 in 850 W/m2
11:19 69.6 °F 58.3 °F 30.2 in South 4.5 mph 10.7 mph 67% 0 in 858 W/m2
11:24 70.2 °F 58.6 °F 30.2 in South 3.8 mph 10.7 mph 67% 0 in 876 W/m2
11:29 70.5 °F 58.6 °F 30.2 in SSE 5.4 mph 9.8 mph 66% 0 in 887 W/m2
11:34 70.2 °F 58.3 °F 30.2 in South 5.4 mph 9.8 mph 66% 0 in 886 W/m2
11:39 70.7 °F 58.8 °F 30.2 in SSE 3.8 mph 9.8 mph 66% 0 in 898 W/m2
11:44 70.5 °F 58.6 °F 30.2 in SSE 3.8 mph 9.2 mph 66% 0 in 906 W/m2
11:49 70.5 °F 58.6 °F 30.2 in South 7.6 mph 9.2 mph 66% 0 in 904 W/m2
11:54 70.7 °F 58.5 °F 30.2 in South 4.5 mph 9.8 mph 65% 0 in 931 W/m2
11:59 70.7 °F 58.8 °F 30.2 in South 3.8 mph 9.8 mph 66% 0 in 934 W/m2
12:04 71.1 °F 59.5 °F 30.2 in SSE 3.1 mph 8.3 mph 67% 0 in 955 W/m2
12:09 71.1 °F 58.3 °F 30.2 in SSE 3.8 mph 8.3 mph 64% 0 in 947 W/m2
12:14 71.4 °F 58.3 °F 30.2 in SSE 6 mph 8.3 mph 63% 0 in 907 W/m2
12:19 70.3 °F 57.2 °F 30.2 in SSE 2.2 mph 9.2 mph 63% 0 in 873 W/m2
12:24 70.9 °F 57.2 °F 30.2 in South 3.8 mph 9.2 mph 62% 0 in 907 W/m2
12:29 70.5 °F 56.8 °F 30.2 in South 2.2 mph 11.4 mph 62% 0 in 930 W/m2
12:34 71.8 °F 56.1 °F 30.2 in SSE 3.1 mph 11.4 mph 58% 0 in 930 W/m2
12:44 71.4 °F 55.4 °F 30.2 in SSE 5.4 mph 9.2 mph 57% 0 in 953 W/m2
12:54 72.3 °F 55.8 °F 30.2 in SE 5.4 mph 9.2 mph 56% 0 in 942 W/m2
12:59 72.1 °F 51.4 °F 30.2 in SSE 3.8 mph 9.2 mph 48% 0 in 955 W/m2
13:04 72.5 °F 54 °F 30.2 in SSE 3.1 mph 8.3 mph 52% 0 in 951 W/m2
13:09 72.9 °F 52.5 °F 30.2 in SE 2.2 mph 6.9 mph 49% 0 in 943 W/m2
13:15 73.4 °F 52.5 °F 30.2 in South 4.5 mph 9.2 mph 48% 0 in 952 W/m2
13:20 73.8 °F 52.9 °F 30.2 in SSE 5.4 mph 9.2 mph 48% 0 in 946 W/m2
13:25 73.4 °F 52 °F 30.2 in SSE 4.5 mph 9.8 mph 47% 0 in 943 W/m2
13:30 73.6 °F 52.2 °F 30.2 in SSE 6 mph 9.8 mph 47% 0 in 935 W/m2
13:35 73.9 °F 52 °F 30.1 in SSE 3.8 mph 9.8 mph 46% 0 in 933 W/m2
13:40 73.6 °F 52.2 °F 30.1 in South 5.4 mph 9.8 mph 47% 0 in 927 W/m2
13:45 73.4 °F 52 °F 30.1 in SSE 3.8 mph 9.8 mph 47% 0 in 917 W/m2
13:51 74.5 °F 53.1 °F 30.1 in SE 3.1 mph 8.3 mph 47% 0 in 916 W/m2
13:56 74.5 °F 53.1 °F 30.1 in SSE 5.4 mph 9.8 mph 47% 0 in 912 W/m2
14:01 74.3 °F 52.9 °F 30.1 in South 6 mph 9.8 mph 47% 0 in 898 W/m2
14:06 74.5 °F 53.4 °F 30.1 in South 3.1 mph 9.8 mph 48% 0 in 891 W/m2
14:11 74.8 °F 54.3 °F 30.1 in SSE 3.1 mph 8.3 mph 49% 0 in 887 W/m2
14:21 74.3 °F 54 °F 30.1 in SE 4.5 mph 9.8 mph 49% 0 in 871 W/m2
14:26 73.8 °F 54 °F 30.1 in SE 3.8 mph 9.8 mph 50% 0 in 862 W/m2
14:31 73.9 °F 53.6 °F 30.1 in SE 7.6 mph 12.1 mph 49% 0 in 853 W/m2
14:36 73.4 °F 53.8 °F 30.1 in SSE 3.8 mph 12.1 mph 50% 0 in 842 W/m2
14:41 73.4 °F 54.1 °F 30.1 in SSE 4.5 mph 9.8 mph 51% 0 in 834 W/m2
14:46 73.6 °F 54.9 °F 30.1 in SSE 1.6 mph 9.8 mph 52% 0 in 824 W/m2
14:51 74.5 °F 54.7 °F 30.1 in SE 6.9 mph 9.8 mph 50% 0 in 814 W/m2
14:56 73.6 °F 54.9 °F 30.1 in SE 4.5 mph 9.8 mph 52% 0 in 803 W/m2
15:01 73.6 °F 54.9 °F 30.1 in SSE 3.8 mph 9.8 mph 52% 0 in 785 W/m2
15:06 75.4 °F 55.9 °F 30.1 in SSE 6.9 mph 9.2 mph 51% 0 in 767 W/m2
15:11 75 °F 55.2 °F 30.1 in SE 5.4 mph 9.2 mph 50% 0 in 748 W/m2
15:16 74.5 °F 56.3 °F 30.1 in SSE 6.9 mph 9.8 mph 53% 0 in 725 W/m2
15:21 74.3 °F 55.6 °F 30.1 in SSE 7.6 mph 11.4 mph 52% 0 in 620 W/m2
15:26 74.5 °F 55.8 °F 30.1 in SSE 3.8 mph 11.4 mph 52% 0 in 738 W/m2
15:31 74.5 °F 55.8 °F 30.1 in South 6.9 mph 12.1 mph 52% 0 in 579 W/m2
15:36 74.3 °F 57 °F 30.1 in South 6 mph 12.1 mph 55% 0 in 531 W/m2
15:41 74.1 °F 57 °F 30.1 in SSE 6 mph 12.1 mph 55% 0 in 559 W/m2
15:51 73.2 °F 57 °F 30.1 in SSE 4.5 mph 13 mph 57% 0 in 578 W/m2
15:56 73.4 °F 57.4 °F 30.1 in SE 4.5 mph 13 mph 57% 0 in 648 W/m2
16:01 73.4 °F 57.4 °F 30.1 in SE 6 mph 10.7 mph 57% 0 in 511 W/m2
16:06 72.7 °F 57 °F 30.1 in SSE 5.4 mph 12.1 mph 58% 0 in 637 W/m2
16:18 73.2 °F 59 °F 30.1 in SE 7.6 mph 12.1 mph 61% 0 in 505 W/m2
16:27 73.6 °F 57.9 °F 30.1 in ESE 6 mph 11.4 mph 58% 0 in 564 W/m2
16:32 73.4 °F 58.3 °F 30.1 in SE 6 mph 12.1 mph 59% 0 in 570 W/m2
16:33 73.4 °F 58.3 °F 30.1 in SE 4.5 mph 12.1 mph 59% 0 in 560 W/m2
16:37 73.4 °F 59.2 °F 30.1 in ESE 1.6 mph 12.1 mph 61% 0 in 556 W/m2
16:47 73.9 °F 59.2 °F 30.1 in SE 4.5 mph 13 mph 60% 0 in 534 W/m2
16:52 74.8 °F 59.2 °F 30.1 in SSE 6 mph 9.2 mph 58% 0 in 523 W/m2
16:57 74.5 °F 58.8 °F 30.1 in SSE 10.7 mph 13.6 mph 58% 0 in 509 W/m2
17:02 73.4 °F 58.3 °F 30.1 in South 3.8 mph 13.6 mph 59% 0 in 495 W/m2
17:07 73.9 °F 58.6 °F 30.1 in SSE 3.1 mph 13.6 mph 59% 0 in 481 W/m2
17:12 74.3 °F 60.1 °F 30.1 in SSE 3.1 mph 13 mph 61% 0 in 468 W/m2
17:17 74.5 °F 60.3 °F 30.1 in SSE 4.5 mph 13.6 mph 61% 0 in 455 W/m2
17:22 73.9 °F 59.7 °F 30.1 in SSE 6.9 mph 13.6 mph 61% 0 in 439 W/m2
17:27 72.9 °F 60.1 °F 30.1 in SSE 6 mph 13 mph 64% 0 in 423 W/m2
17:32 73.2 °F 60.3 °F 30.1 in SSE 6.9 mph 13 mph 64% 0 in 404 W/m2
17:37 73.6 °F 61.2 °F 30.1 in SSE 8.3 mph 11.4 mph 65% 0 in 393 W/m2
17:42 73.2 °F 60.3 °F 30.1 in SSE 5.4 mph 11.4 mph 64% 0 in 379 W/m2
17:47 73.6 °F 60.3 °F 30.1 in SSE 3.1 mph 10.7 mph 63% 0 in 369 W/m2
17:52 73.8 °F 58.6 °F 30.1 in SSE 3.8 mph 12.1 mph 59% 0 in 350 W/m2
17:57 74.5 °F 59.7 °F 30.1 in SSE 7.6 mph 13 mph 60% 0 in 335 W/m2
18:02 75 °F 58.8 °F 30.1 in SSE 6.9 mph 13 mph 57% 0 in 322 W/m2
18:07 74.8 °F 54 °F 30.1 in SSE 6 mph 13 mph 48% 0 in 308 W/m2
18:12 75.6 °F 53.4 °F 30.1 in SE 6 mph 13 mph 46% 0 in 294 W/m2
18:17 74.8 °F 53.2 °F 30.1 in ESE 6 mph 15.2 mph 47% 0 in 275 W/m2
18:22 74.7 °F 54.3 °F 30.1 in ESE 5.4 mph 15.2 mph 49% 0 in 259 W/m2
18:27 75.2 °F 54.1 °F 30.1 in East 6 mph 15.2 mph 48% 0 in 241 W/m2
18:32 74.8 °F 54.3 °F 30.1 in ESE 5.4 mph 15.2 mph 49% 0 in 99 W/m2
18:37 73.9 °F 54.1 °F 30.1 in ESE 6 mph 12.1 mph 50% 0 in 203 W/m2
18:42 73.8 °F 54.5 °F 30.1 in ESE 5.4 mph 12.1 mph 51% 0 in 89 W/m2
18:47 73.6 °F 54.9 °F 30.1 in East 3.8 mph 9.8 mph 52% 0 in 117 W/m2
18:52 73.8 °F 55 °F 30.1 in ESE 5.4 mph 7.6 mph 52% 0 in 135 W/m2
18:57 73.8 °F 54.5 °F 30.1 in ESE 2.2 mph 8.3 mph 51% 0 in 81 W/m2
19:02 73.8 °F 54 °F 30.1 in East 8.3 mph 11.4 mph 50% 0 in 68 W/m2
19:07 73.8 °F 53.4 °F 30.1 in East 5.4 mph 11.4 mph 49% 0 in 60 W/m2
19:12 73.9 °F 54.1 °F 30.1 in East 3.1 mph 9.8 mph 50% 0 in 57 W/m2
19:17 73.9 °F 54.1 °F 30.1 in East 0.7 mph 7.6 mph 50% 0 in 50 W/m2
19:22 74.1 °F 54.3 °F 30.1 in Calm   6 mph 50% 0 in 55 W/m2
19:27 73.9 °F 56.3 °F 30.1 in North 1.6 mph 3.1 mph 54% 0 in 57 W/m2
19:32 73.2 °F 56.7 °F 30.1 in NW 1.6 mph 3.1 mph 56% 0 in 52 W/m2
19:37 72.7 °F 57 °F 30.1 in NW 1.6 mph 3.1 mph 58% 0 in 44 W/m2
19:42 72 °F 57.4 °F 30.1 in NW 2.2 mph 5.4 mph 60% 0 in 35 W/m2
19:52 70.9 °F 57.2 °F 30.1 in NW 5.4 mph 7.6 mph 62% 0 in 41 W/m2
19:57 70.5 °F 56.8 °F 30.1 in NNW 3.8 mph 7.6 mph 62% 0 in 35 W/m2
20:02 70.2 °F 57 °F 30.1 in NNW 3.8 mph 6.9 mph 63% 0 in 24 W/m2
20:07 69.6 °F 57.7 °F 30.1 in NW 2.2 mph 6.9 mph 66% 0 in 18 W/m2
20:12 69.4 °F 57.9 °F 30.1 in NW 3.1 mph 6 mph 67% 0 in 14 W/m2
20:17 69.1 °F 57.7 °F 30.1 in NNW 3.8 mph 6 mph 67% 0 in 12 W/m2
20:22 68.7 °F 58.3 °F 30.1 in NNW 3.1 mph 5.4 mph 69% 0 in 6 W/m2
20:27 68.4 °F 58.3 °F 30.1 in NNW 1.6 mph 5.4 mph 70% 0 in 4 W/m2
20:32 68 °F 58.3 °F 30.1 in NNW 3.8 mph 5.4 mph 71% 0 in 1 W/m2
20:37 67.8 °F 58.5 °F 30.1 in Calm   5.4 mph 72% 0 in 0 W/m2
20:42 67.5 °F 58.5 °F 30.1 in NNW 2.2 mph 5.4 mph 73% 0 in 0 W/m2
20:47 67.3 °F 58.5 °F 30.1 in North 0.7 mph 5.4 mph 73% 0 in 0 W/m2
20:52 67.3 °F 58.5 °F 30.1 in North 1.6 mph 4.5 mph 73% 0 in 0 W/m2
20:57 67.1 °F 58.3 °F 30.1 in NNW 1.6 mph 3.8 mph 73% 0 in 0 W/m2
21:02 67.1 °F 58.6 °F 30.1 in NNW 1.6 mph 3.1 mph 74% 0 in 0 W/m2
21:07 67.3 °F 58.5 °F 30.1 in Calm   3.8 mph 73% 0 in 0 W/m2
21:12 67.3 °F 58.5 °F 30.1 in NNW 2.2 mph 4.5 mph 73% 0 in 0 W/m2
21:18 67.3 °F 57.9 °F 30.1 in Calm   4.5 mph 72% 0 in 0 W/m2
21:23 67.1 °F 57.7 °F 30.1 in Calm   3.1 mph 72% 0 in 0 W/m2
21:28 66.9 °F 57.9 °F 30.1 in North 0.7 mph 3.1 mph 73% 0 in 0 W/m2
21:38 66.7 °F 57.7 °F 30.1 in Calm   2.2 mph 73% 0 in 0 W/m2
21:43 66.4 °F 57.9 °F 30.1 in North 1.6 mph 3.1 mph 74% 0 in 0 W/m2
21:48 66.2 °F 57.7 °F 30.1 in North 0.7 mph 3.1 mph 74% 0 in 0 W/m2
21:53 66 °F 57.9 °F 30.1 in Calm   2.2 mph 75% 0 in 0 W/m2
21:58 66 °F 57.9 °F 30.1 in Calm   2.2 mph 75% 0 in 0 W/m2
22:03 65.7 °F 57.6 °F 30.1 in Calm   2.2 mph 75% 0 in 0 W/m2
22:08 65.5 °F 57.7 °F 30.1 in Calm   0.7 mph 76% 0 in 0 W/m2
22:13 65.3 °F 57.6 °F 30.1 in Calm   0.7 mph 76% 0 in 0 W/m2
22:18 65.1 °F 57.4 °F 30.1 in Calm   0.7 mph 76% 0 in 0 W/m2
22:23 64.8 °F 57 °F 30.1 in Calm     76% 0 in 0 W/m2
22:28 64.6 °F 56.8 °F 30.1 in North 0.7 mph 2.2 mph 76% 0 in 0 W/m2
22:33 64.6 °F 57.2 °F 30.1 in Calm   2.2 mph 77% 0 in 0 W/m2
22:39 64 °F 56.3 °F 30.1 in Calm   1.6 mph 76% 0 in 0 W/m2
22:44 63.7 °F 55.9 °F 30.1 in Calm     76% 0 in 0 W/m2
22:49 63.7 °F 56.5 °F 30.1 in Calm     77% 0 in 0 W/m2
22:54 63.3 °F 56.5 °F 30.1 in Calm     78% 0 in 0 W/m2
22:59 62.8 °F 55.6 °F 30.1 in Calm     77% 0 in 0 W/m2
23:04 62.8 °F 55.8 °F 30.1 in Calm     78% 0 in 0 W/m2
23:09 62.8 °F 56.1 °F 30.1 in Calm     79% 0 in 0 W/m2
23:14 62.8 °F 56.5 °F 30.1 in Calm     80% 0 in 0 W/m2
23:19 62.6 °F 56.5 °F 30.1 in Calm   1.6 mph 80% 0 in 0 W/m2
23:24 62.2 °F 56.7 °F 30.1 in NW 1.6 mph 3.1 mph 82% 0 in 0 W/m2
23:29 62.1 °F 56.8 °F 30.1 in Calm   3.1 mph 83% 0 in 0 W/m2
23:34 61.9 °F 56.7 °F 30.1 in NNW 2.2 mph 3.8 mph 83% 0 in 0 W/m2
23:39 61.9 °F 57 °F 30.1 in North 0.7 mph 3.8 mph 84% 0 in 0 W/m2
23:44 61.9 °F 57 °F 30.1 in North 0.7 mph 4.5 mph 84% 0 in 0 W/m2
23:49 61.9 °F 56.7 °F 30.1 in North 2.2 mph 4.5 mph 83% 0 in 0 W/m2
23:54 62.1 °F 56.5 °F 30.1 in North 2.2 mph 5.4 mph 82% 0 in 0 W/m2
23:59 62.2 °F 55.8 °F 30.1 in NNW 3.1 mph 5.4 mph 79% 0 in 0 W/m2
Northern Hawkes Bay. New Zealand Historic Data
Compliments of Weather Underground - 2 mb